sensor_id;sensor_type;location;lat;lon;timestamp;P1;durP1;ratioP1;P2;durP2;ratioP2
55663;SDS011;41540;57.880;12.164;2022-10-31T00:06:39;52.03;;;30.75;;
55663;SDS011;41540;57.880;12.164;2022-10-31T00:16:39;51.00;;;29.48;;
55663;SDS011;41540;57.880;12.164;2022-10-31T00:26:41;53.50;;;29.00;;
55663;SDS011;41540;57.880;12.164;2022-10-31T00:36:41;47.60;;;29.17;;
55663;SDS011;41540;57.880;12.164;2022-10-31T00:46:42;46.85;;;27.73;;
55663;SDS011;41540;57.880;12.164;2022-10-31T00:56:42;70.53;;;32.58;;
55663;SDS011;41540;57.880;12.164;2022-10-31T01:06:42;68.93;;;34.58;;
55663;SDS011;41540;57.880;12.164;2022-10-31T01:16:43;68.63;;;31.33;;
55663;SDS011;41540;57.880;12.164;2022-10-31T01:26:43;66.40;;;32.08;;
55663;SDS011;41540;57.880;12.164;2022-10-31T01:36:44;46.08;;;27.08;;
55663;SDS011;41540;57.880;12.164;2022-10-31T01:56:50;51.58;;;25.63;;
55663;SDS011;41540;57.880;12.164;2022-10-31T02:06:59;45.58;;;25.45;;
55663;SDS011;41540;57.880;12.164;2022-10-31T02:17:10;47.97;;;24.55;;
55663;SDS011;41540;57.880;12.164;2022-10-31T02:47:22;58.17;;;24.65;;
55663;SDS011;41540;57.880;12.164;2022-10-31T02:57:36;44.53;;;24.17;;
55663;SDS011;41540;57.880;12.164;2022-10-31T03:07:41;59.45;;;24.60;;
55663;SDS011;41540;57.880;12.164;2022-10-31T03:18:04;42.75;;;24.52;;
55663;SDS011;41540;57.880;12.164;2022-10-31T03:28:17;44.47;;;22.17;;
55663;SDS011;41540;57.880;12.164;2022-10-31T03:38:23;41.30;;;18.95;;
55663;SDS011;41540;57.880;12.164;2022-10-31T03:48:23;36.25;;;21.38;;
55663;SDS011;41540;57.880;12.164;2022-10-31T03:58:29;38.72;;;22.60;;
55663;SDS011;41540;57.880;12.164;2022-10-31T04:08:41;40.00;;;20.10;;
55663;SDS011;41540;57.880;12.164;2022-10-31T04:18:48;39.83;;;19.88;;
55663;SDS011;41540;57.880;12.164;2022-10-31T04:28:48;43.15;;;21.58;;
55663;SDS011;41540;57.880;12.164;2022-10-31T04:38:49;39.50;;;19.70;;
55663;SDS011;41540;57.880;12.164;2022-10-31T04:48:49;35.92;;;19.00;;
55663;SDS011;41540;57.880;12.164;2022-10-31T04:58:49;30.90;;;19.60;;
55663;SDS011;41540;57.880;12.164;2022-10-31T05:08:50;31.30;;;20.45;;
55663;SDS011;41540;57.880;12.164;2022-10-31T05:18:50;32.58;;;20.73;;
55663;SDS011;41540;57.880;12.164;2022-10-31T05:28:50;51.78;;;21.88;;
55663;SDS011;41540;57.880;12.164;2022-10-31T05:38:51;48.88;;;21.83;;
55663;SDS011;41540;57.880;12.164;2022-10-31T05:48:51;41.83;;;21.67;;
55663;SDS011;41540;57.880;12.164;2022-10-31T05:58:51;46.30;;;21.25;;
55663;SDS011;41540;57.880;12.164;2022-10-31T06:08:52;34.90;;;16.80;;
55663;SDS011;41540;57.880;12.164;2022-10-31T06:18:52;26.08;;;15.25;;
55663;SDS011;41540;57.880;12.164;2022-10-31T06:28:52;29.30;;;16.95;;
55663;SDS011;41540;57.880;12.164;2022-10-31T06:38:53;32.80;;;17.45;;
55663;SDS011;41540;57.880;12.164;2022-10-31T06:48:53;44.33;;;20.98;;
55663;SDS011;41540;57.880;12.164;2022-10-31T06:58:56;50.40;;;22.15;;
55663;SDS011;41540;57.880;12.164;2022-10-31T07:08:56;53.27;;;24.07;;
55663;SDS011;41540;57.880;12.164;2022-10-31T07:18:56;40.10;;;22.42;;
55663;SDS011;41540;57.880;12.164;2022-10-31T07:28:57;42.13;;;23.02;;
55663;SDS011;41540;57.880;12.164;2022-10-31T07:38:59;33.75;;;18.83;;
55663;SDS011;41540;57.880;12.164;2022-10-31T07:49:02;47.10;;;29.40;;
55663;SDS011;41540;57.880;12.164;2022-10-31T07:59:02;28.75;;;17.08;;
55663;SDS011;41540;57.880;12.164;2022-10-31T08:09:02;32.03;;;16.83;;
55663;SDS011;41540;57.880;12.164;2022-10-31T08:19:03;22.05;;;12.95;;
55663;SDS011;41540;57.880;12.164;2022-10-31T08:29:03;25.60;;;15.45;;
55663;SDS011;41540;57.880;12.164;2022-10-31T08:39:04;18.55;;;9.80;;
55663;SDS011;41540;57.880;12.164;2022-10-31T08:49:05;16.20;;;7.82;;
55663;SDS011;41540;57.880;12.164;2022-10-31T08:59:06;23.15;;;20.67;;
55663;SDS011;41540;57.880;12.164;2022-10-31T09:09:06;39.72;;;31.15;;
55663;SDS011;41540;57.880;12.164;2022-10-31T09:19:06;43.72;;;35.65;;
55663;SDS011;41540;57.880;12.164;2022-10-31T09:29:07;31.83;;;16.15;;
55663;SDS011;41540;57.880;12.164;2022-10-31T09:39:09;22.03;;;11.90;;
55663;SDS011;41540;57.880;12.164;2022-10-31T09:59:28;29.80;;;10.25;;
55663;SDS011;41540;57.880;12.164;2022-10-31T10:09:35;14.05;;;6.93;;
55663;SDS011;41540;57.880;12.164;2022-10-31T10:30:32;13.75;;;9.27;;
55663;SDS011;41540;57.880;12.164;2022-10-31T10:40:22;20.60;;;9.63;;
55663;SDS011;41540;57.880;12.164;2022-10-31T10:50:27;33.50;;;25.13;;
55663;SDS011;41540;57.880;12.164;2022-10-31T11:00:44;27.00;;;16.95;;
55663;SDS011;41540;57.880;12.164;2022-10-31T11:10:56;23.77;;;15.55;;
55663;SDS011;41540;57.880;12.164;2022-10-31T11:20:59;40.22;;;19.10;;
55663;SDS011;41540;57.880;12.164;2022-10-31T11:31:07;50.58;;;23.98;;
55663;SDS011;41540;57.880;12.164;2022-10-31T11:41:10;13.77;;;7.88;;
55663;SDS011;41540;57.880;12.164;2022-10-31T11:51:19;30.08;;;8.68;;
55663;SDS011;41540;57.880;12.164;2022-10-31T12:01:39;18.15;;;7.80;;
55663;SDS011;41540;57.880;12.164;2022-10-31T12:22:20;21.65;;;8.50;;
55663;SDS011;41540;57.880;12.164;2022-10-31T13:03:46;12.43;;;4.63;;
55663;SDS011;41540;57.880;12.164;2022-10-31T13:13:59;29.67;;;10.35;;
55663;SDS011;41540;57.880;12.164;2022-10-31T13:24:19;14.30;;;5.38;;
55663;SDS011;41540;57.880;12.164;2022-10-31T13:34:28;20.13;;;8.35;;
55663;SDS011;41540;57.880;12.164;2022-10-31T13:44:34;33.03;;;19.10;;
55663;SDS011;41540;57.880;12.164;2022-10-31T14:04:44;11.77;;;2.95;;
55663;SDS011;41540;57.880;12.164;2022-10-31T14:14:49;16.20;;;3.78;;
55663;SDS011;41540;57.880;12.164;2022-10-31T14:24:52;7.28;;;3.25;;
55663;SDS011;41540;57.880;12.164;2022-10-31T14:34:54;15.38;;;4.65;;
55663;SDS011;41540;57.880;12.164;2022-10-31T14:55:15;19.27;;;4.35;;
55663;SDS011;41540;57.880;12.164;2022-10-31T15:05:18;16.57;;;4.73;;
55663;SDS011;41540;57.880;12.164;2022-10-31T15:15:21;18.38;;;5.00;;
55663;SDS011;41540;57.880;12.164;2022-10-31T15:25:24;19.05;;;6.47;;
55663;SDS011;41540;57.880;12.164;2022-10-31T15:35:28;19.52;;;5.72;;
55663;SDS011;41540;57.880;12.164;2022-10-31T15:45:30;12.97;;;5.30;;
55663;SDS011;41540;57.880;12.164;2022-10-31T15:55:33;23.80;;;7.30;;
55663;SDS011;41540;57.880;12.164;2022-10-31T16:15:47;17.52;;;6.18;;
55663;SDS011;41540;57.880;12.164;2022-10-31T16:25:56;18.52;;;7.90;;
55663;SDS011;41540;57.880;12.164;2022-10-31T16:35:57;56.13;;;34.58;;
55663;SDS011;41540;57.880;12.164;2022-10-31T16:45:58;28.30;;;15.00;;
55663;SDS011;41540;57.880;12.164;2022-10-31T16:55:58;33.42;;;20.48;;
55663;SDS011;41540;57.880;12.164;2022-10-31T17:06:01;28.10;;;17.60;;
55663;SDS011;41540;57.880;12.164;2022-10-31T17:16:02;26.52;;;15.82;;
55663;SDS011;41540;57.880;12.164;2022-10-31T17:26:03;19.23;;;13.55;;
55663;SDS011;41540;57.880;12.164;2022-10-31T17:36:03;21.17;;;13.90;;
55663;SDS011;41540;57.880;12.164;2022-10-31T17:46:04;30.10;;;14.48;;
55663;SDS011;41540;57.880;12.164;2022-10-31T17:56:06;22.85;;;14.10;;
55663;SDS011;41540;57.880;12.164;2022-10-31T18:06:08;27.33;;;18.55;;
55663;SDS011;41540;57.880;12.164;2022-10-31T18:16:12;25.95;;;16.75;;
55663;SDS011;41540;57.880;12.164;2022-10-31T18:26:15;32.58;;;17.25;;
55663;SDS011;41540;57.880;12.164;2022-10-31T18:36:15;29.33;;;17.02;;
55663;SDS011;41540;57.880;12.164;2022-10-31T18:46:18;29.27;;;17.45;;
55663;SDS011;41540;57.880;12.164;2022-10-31T18:56:18;24.52;;;13.95;;
55663;SDS011;41540;57.880;12.164;2022-10-31T19:06:20;22.95;;;12.13;;
55663;SDS011;41540;57.880;12.164;2022-10-31T19:16:20;21.20;;;13.93;;
55663;SDS011;41540;57.880;12.164;2022-10-31T19:26:20;18.23;;;11.60;;
55663;SDS011;41540;57.880;12.164;2022-10-31T19:36:21;18.65;;;12.00;;
55663;SDS011;41540;57.880;12.164;2022-10-31T19:46:22;25.73;;;13.50;;
55663;SDS011;41540;57.880;12.164;2022-10-31T19:56:23;20.58;;;12.18;;
55663;SDS011;41540;57.880;12.164;2022-10-31T20:06:25;20.35;;;11.75;;
55663;SDS011;41540;57.880;12.164;2022-10-31T20:16:27;20.57;;;12.70;;
55663;SDS011;41540;57.880;12.164;2022-10-31T20:26:28;35.53;;;27.88;;
55663;SDS011;41540;57.880;12.164;2022-10-31T20:36:30;32.78;;;15.70;;
55663;SDS011;41540;57.880;12.164;2022-10-31T20:46:30;28.27;;;15.60;;
55663;SDS011;41540;57.880;12.164;2022-10-31T20:56:31;27.90;;;12.23;;
55663;SDS011;41540;57.880;12.164;2022-10-31T21:06:31;15.18;;;11.75;;
55663;SDS011;41540;57.880;12.164;2022-10-31T21:16:34;16.42;;;11.35;;
55663;SDS011;41540;57.880;12.164;2022-10-31T21:26:39;30.00;;;10.88;;
55663;SDS011;41540;57.880;12.164;2022-10-31T21:36:41;22.17;;;9.20;;
55663;SDS011;41540;57.880;12.164;2022-10-31T21:46:41;24.77;;;10.45;;
55663;SDS011;41540;57.880;12.164;2022-10-31T21:56:46;15.95;;;9.20;;
55663;SDS011;41540;57.880;12.164;2022-10-31T22:06:47;23.75;;;9.63;;
55663;SDS011;41540;57.880;12.164;2022-10-31T22:16:47;15.73;;;10.18;;
55663;SDS011;41540;57.880;12.164;2022-10-31T22:26:48;20.67;;;9.18;;
55663;SDS011;41540;57.880;12.164;2022-10-31T22:36:48;14.63;;;7.88;;
55663;SDS011;41540;57.880;12.164;2022-10-31T22:46:48;24.63;;;7.63;;
55663;SDS011;41540;57.880;12.164;2022-10-31T22:56:49;10.80;;;7.32;;
55663;SDS011;41540;57.880;12.164;2022-10-31T23:06:49;16.38;;;8.32;;
55663;SDS011;41540;57.880;12.164;2022-10-31T23:16:53;15.65;;;8.20;;
55663;SDS011;41540;57.880;12.164;2022-10-31T23:26:55;9.85;;;6.93;;
55663;SDS011;41540;57.880;12.164;2022-10-31T23:37:07;32.75;;;9.13;;
55663;SDS011;41540;57.880;12.164;2022-10-31T23:47:07;13.25;;;8.90;;
55663;SDS011;41540;57.880;12.164;2022-10-31T23:57:09;24.70;;;9.63;;
